sensor_id;sensor_type;location;lat;lon;timestamp;temperature;humidity
22224;DHT22;11281;52.194;21.006;2023-03-31T00:01:59;9.20;99.90
22224;DHT22;11281;52.194;21.006;2023-03-31T00:06:02;9.20;99.90
22224;DHT22;11281;52.194;21.006;2023-03-31T00:10:04;9.20;99.90
22224;DHT22;11281;52.194;21.006;2023-03-31T00:14:07;9.10;99.90
22224;DHT22;11281;52.194;21.006;2023-03-31T00:18:10;9.20;99.90
22224;DHT22;11281;52.194;21.006;2023-03-31T00:22:11;9.20;99.90
22224;DHT22;11281;52.194;21.006;2023-03-31T00:26:14;9.20;99.90
22224;DHT22;11281;52.194;21.006;2023-03-31T00:30:15;9.20;99.90
22224;DHT22;11281;52.194;21.006;2023-03-31T00:34:17;9.20;99.90
22224;DHT22;11281;52.194;21.006;2023-03-31T00:38:19;9.20;99.90
22224;DHT22;11281;52.194;21.006;2023-03-31T00:42:22;9.20;99.90
22224;DHT22;11281;52.194;21.006;2023-03-31T00:47:04;9.10;99.90
22224;DHT22;11281;52.194;21.006;2023-03-31T00:51:00;9.10;99.90
22224;DHT22;11281;52.194;21.006;2023-03-31T00:55:09;9.10;99.90
22224;DHT22;11281;52.194;21.006;2023-03-31T00:59:18;9.00;99.90
22224;DHT22;11281;52.194;21.006;2023-03-31T01:03:21;9.10;99.90
22224;DHT22;11281;52.194;21.006;2023-03-31T01:07:40;9.10;99.90
22224;DHT22;11281;52.194;21.006;2023-03-31T01:11:44;9.10;99.90
22224;DHT22;11281;52.194;21.006;2023-03-31T01:15:47;9.10;99.90
22224;DHT22;11281;52.194;21.006;2023-03-31T01:20:13;9.10;99.90
22224;DHT22;11281;52.194;21.006;2023-03-31T01:24:48;9.10;99.90
22224;DHT22;11281;52.194;21.006;2023-03-31T01:43:25;9.00;99.90
22224;DHT22;11281;52.194;21.006;2023-03-31T01:47:48;9.10;99.90
22224;DHT22;11281;52.194;21.006;2023-03-31T01:52:05;9.10;99.90
22224;DHT22;11281;52.194;21.006;2023-03-31T01:56:15;9.10;99.90
22224;DHT22;11281;52.194;21.006;2023-03-31T02:00:27;9.10;99.90
22224;DHT22;11281;52.194;21.006;2023-03-31T02:04:40;9.10;99.90
22224;DHT22;11281;52.194;21.006;2023-03-31T02:09:13;9.00;99.90
22224;DHT22;11281;52.194;21.006;2023-03-31T02:13:18;9.00;99.90
22224;DHT22;11281;52.194;21.006;2023-03-31T02:17:23;9.00;99.90
22224;DHT22;11281;52.194;21.006;2023-03-31T02:21:35;9.00;99.90
22224;DHT22;11281;52.194;21.006;2023-03-31T02:25:48;9.00;99.90
22224;DHT22;11281;52.194;21.006;2023-03-31T02:29:52;9.00;99.90
22224;DHT22;11281;52.194;21.006;2023-03-31T02:33:54;9.00;99.90
22224;DHT22;11281;52.194;21.006;2023-03-31T02:37:56;9.00;99.90
22224;DHT22;11281;52.194;21.006;2023-03-31T02:41:59;8.90;99.90
22224;DHT22;11281;52.194;21.006;2023-03-31T02:46:07;8.90;99.90
22224;DHT22;11281;52.194;21.006;2023-03-31T02:50:09;8.90;99.90
22224;DHT22;11281;52.194;21.006;2023-03-31T02:54:23;8.90;99.90
22224;DHT22;11281;52.194;21.006;2023-03-31T02:58:40;8.90;99.90
22224;DHT22;11281;52.194;21.006;2023-03-31T03:07:36;8.90;99.90
22224;DHT22;11281;52.194;21.006;2023-03-31T03:11:45;8.90;99.90
22224;DHT22;11281;52.194;21.006;2023-03-31T03:16:00;8.90;99.90
22224;DHT22;11281;52.194;21.006;2023-03-31T03:20:24;8.90;99.90
22224;DHT22;11281;52.194;21.006;2023-03-31T03:24:26;8.90;99.90
22224;DHT22;11281;52.194;21.006;2023-03-31T03:28:29;8.80;99.90
22224;DHT22;11281;52.194;21.006;2023-03-31T03:32:32;8.80;99.90
22224;DHT22;11281;52.194;21.006;2023-03-31T03:36:34;8.90;99.90
22224;DHT22;11281;52.194;21.006;2023-03-31T03:40:38;8.80;99.90
22224;DHT22;11281;52.194;21.006;2023-03-31T03:44:40;8.70;99.90
22224;DHT22;11281;52.194;21.006;2023-03-31T03:48:42;8.70;99.90
22224;DHT22;11281;52.194;21.006;2023-03-31T03:52:44;8.60;99.90
22224;DHT22;11281;52.194;21.006;2023-03-31T03:56:46;8.40;99.90
22224;DHT22;11281;52.194;21.006;2023-03-31T04:00:48;8.20;99.90
22224;DHT22;11281;52.194;21.006;2023-03-31T04:04:49;8.20;99.90
22224;DHT22;11281;52.194;21.006;2023-03-31T04:08:51;8.00;99.90
22224;DHT22;11281;52.194;21.006;2023-03-31T04:12:52;8.10;99.90
22224;DHT22;11281;52.194;21.006;2023-03-31T04:16:54;8.10;99.90
22224;DHT22;11281;52.194;21.006;2023-03-31T04:20:56;8.10;99.90
22224;DHT22;11281;52.194;21.006;2023-03-31T04:25:11;8.20;99.90
22224;DHT22;11281;52.194;21.006;2023-03-31T04:29:16;8.20;99.90
22224;DHT22;11281;52.194;21.006;2023-03-31T04:33:20;8.20;99.90
22224;DHT22;11281;52.194;21.006;2023-03-31T04:37:21;8.20;99.90
22224;DHT22;11281;52.194;21.006;2023-03-31T04:41:28;8.30;99.90
22224;DHT22;11281;52.194;21.006;2023-03-31T04:45:30;8.40;99.90
22224;DHT22;11281;52.194;21.006;2023-03-31T04:49:32;8.30;99.90
22224;DHT22;11281;52.194;21.006;2023-03-31T04:53:34;8.20;99.90
22224;DHT22;11281;52.194;21.006;2023-03-31T04:57:35;8.00;99.90
22224;DHT22;11281;52.194;21.006;2023-03-31T05:01:37;8.10;99.90
22224;DHT22;11281;52.194;21.006;2023-03-31T05:05:39;8.20;99.90
22224;DHT22;11281;52.194;21.006;2023-03-31T05:09:41;8.40;99.90
22224;DHT22;11281;52.194;21.006;2023-03-31T05:13:43;8.50;99.90
22224;DHT22;11281;52.194;21.006;2023-03-31T05:17:45;8.50;99.90
22224;DHT22;11281;52.194;21.006;2023-03-31T05:21:47;8.60;99.90
22224;DHT22;11281;52.194;21.006;2023-03-31T05:25:49;8.60;99.90
22224;DHT22;11281;52.194;21.006;2023-03-31T05:29:50;8.70;99.90
22224;DHT22;11281;52.194;21.006;2023-03-31T05:33:52;8.70;99.90
22224;DHT22;11281;52.194;21.006;2023-03-31T05:37:54;8.70;99.90
22224;DHT22;11281;52.194;21.006;2023-03-31T05:41:56;8.80;99.90
22224;DHT22;11281;52.194;21.006;2023-03-31T05:45:58;8.80;99.90
22224;DHT22;11281;52.194;21.006;2023-03-31T05:50:00;8.80;99.90
22224;DHT22;11281;52.194;21.006;2023-03-31T05:54:03;8.90;99.90
22224;DHT22;11281;52.194;21.006;2023-03-31T05:58:06;8.90;99.90
22224;DHT22;11281;52.194;21.006;2023-03-31T06:02:12;9.00;99.90
22224;DHT22;11281;52.194;21.006;2023-03-31T06:06:16;9.20;99.90
22224;DHT22;11281;52.194;21.006;2023-03-31T06:10:18;9.20;99.90
22224;DHT22;11281;52.194;21.006;2023-03-31T06:14:20;9.20;99.90
22224;DHT22;11281;52.194;21.006;2023-03-31T06:18:22;9.30;99.90
22224;DHT22;11281;52.194;21.006;2023-03-31T06:22:24;9.20;99.90
22224;DHT22;11281;52.194;21.006;2023-03-31T06:26:26;9.40;99.90
22224;DHT22;11281;52.194;21.006;2023-03-31T06:30:28;9.50;99.90
22224;DHT22;11281;52.194;21.006;2023-03-31T06:34:30;9.60;99.90
22224;DHT22;11281;52.194;21.006;2023-03-31T06:38:33;9.70;99.90
22224;DHT22;11281;52.194;21.006;2023-03-31T06:42:36;9.70;99.90
22224;DHT22;11281;52.194;21.006;2023-03-31T06:46:37;9.80;99.90
22224;DHT22;11281;52.194;21.006;2023-03-31T06:50:40;9.90;99.90
22224;DHT22;11281;52.194;21.006;2023-03-31T06:54:42;10.00;99.90
22224;DHT22;11281;52.194;21.006;2023-03-31T06:58:43;10.00;99.90
22224;DHT22;11281;52.194;21.006;2023-03-31T07:02:45;9.80;99.90
22224;DHT22;11281;52.194;21.006;2023-03-31T07:06:50;10.10;99.90
22224;DHT22;11281;52.194;21.006;2023-03-31T07:10:57;10.20;99.90
22224;DHT22;11281;52.194;21.006;2023-03-31T07:14:59;10.40;99.90
22224;DHT22;11281;52.194;21.006;2023-03-31T07:19:01;10.50;99.90
22224;DHT22;11281;52.194;21.006;2023-03-31T07:23:04;10.80;99.90
22224;DHT22;11281;52.194;21.006;2023-03-31T07:27:06;11.20;99.90
22224;DHT22;11281;52.194;21.006;2023-03-31T07:31:11;11.20;99.90
22224;DHT22;11281;52.194;21.006;2023-03-31T07:35:14;11.50;99.90
22224;DHT22;11281;52.194;21.006;2023-03-31T07:39:16;11.30;99.90
22224;DHT22;11281;52.194;21.006;2023-03-31T07:43:17;11.60;99.90
22224;DHT22;11281;52.194;21.006;2023-03-31T07:47:19;11.70;99.90
22224;DHT22;11281;52.194;21.006;2023-03-31T07:51:23;11.90;99.90
22224;DHT22;11281;52.194;21.006;2023-03-31T07:55:26;11.80;99.90
22224;DHT22;11281;52.194;21.006;2023-03-31T07:59:27;11.70;99.90
22224;DHT22;11281;52.194;21.006;2023-03-31T08:03:30;12.00;99.90
22224;DHT22;11281;52.194;21.006;2023-03-31T08:07:36;12.30;99.90
22224;DHT22;11281;52.194;21.006;2023-03-31T08:11:39;12.00;99.90
22224;DHT22;11281;52.194;21.006;2023-03-31T08:15:41;12.60;99.90
22224;DHT22;11281;52.194;21.006;2023-03-31T08:19:43;12.30;99.90
22224;DHT22;11281;52.194;21.006;2023-03-31T08:23:44;12.90;99.90
22224;DHT22;11281;52.194;21.006;2023-03-31T08:27:46;13.00;99.90
22224;DHT22;11281;52.194;21.006;2023-03-31T08:31:52;12.70;99.90
22224;DHT22;11281;52.194;21.006;2023-03-31T08:35:54;12.80;99.90
22224;DHT22;11281;52.194;21.006;2023-03-31T08:39:56;13.00;99.90
22224;DHT22;11281;52.194;21.006;2023-03-31T08:43:59;12.80;99.90
22224;DHT22;11281;52.194;21.006;2023-03-31T08:52:30;13.10;99.90
22224;DHT22;11281;52.194;21.006;2023-03-31T08:56:37;13.90;99.90
22224;DHT22;11281;52.194;21.006;2023-03-31T09:09:49;13.30;99.90
22224;DHT22;11281;52.194;21.006;2023-03-31T09:18:32;13.40;99.90
22224;DHT22;11281;52.194;21.006;2023-03-31T09:22:48;13.00;99.90
22224;DHT22;11281;52.194;21.006;2023-03-31T09:27:06;12.70;99.90
22224;DHT22;11281;52.194;21.006;2023-03-31T09:31:16;12.90;99.90
22224;DHT22;11281;52.194;21.006;2023-03-31T09:39:25;13.20;99.90
22224;DHT22;11281;52.194;21.006;2023-03-31T09:43:29;13.10;99.90
22224;DHT22;11281;52.194;21.006;2023-03-31T09:47:42;13.20;99.90
22224;DHT22;11281;52.194;21.006;2023-03-31T09:51:48;13.20;99.90
22224;DHT22;11281;52.194;21.006;2023-03-31T09:56:04;13.30;99.90
22224;DHT22;11281;52.194;21.006;2023-03-31T10:04:24;13.40;99.90
22224;DHT22;11281;52.194;21.006;2023-03-31T10:08:53;13.70;99.90
22224;DHT22;11281;52.194;21.006;2023-03-31T10:12:57;13.80;99.90
22224;DHT22;11281;52.194;21.006;2023-03-31T10:17:04;13.90;99.90
22224;DHT22;11281;52.194;21.006;2023-03-31T10:21:24;14.20;99.90
22224;DHT22;11281;52.194;21.006;2023-03-31T10:25:27;13.70;99.90
22224;DHT22;11281;52.194;21.006;2023-03-31T10:29:31;13.70;99.90
22224;DHT22;11281;52.194;21.006;2023-03-31T10:33:41;13.80;99.90
22224;DHT22;11281;52.194;21.006;2023-03-31T10:37:48;14.00;99.90
22224;DHT22;11281;52.194;21.006;2023-03-31T10:41:51;14.00;99.90
22224;DHT22;11281;52.194;21.006;2023-03-31T10:45:56;14.80;99.90
22224;DHT22;11281;52.194;21.006;2023-03-31T10:50:03;14.50;99.90
22224;DHT22;11281;52.194;21.006;2023-03-31T10:54:11;14.20;99.90
22224;DHT22;11281;52.194;21.006;2023-03-31T11:04:01;14.50;99.90
22224;DHT22;11281;52.194;21.006;2023-03-31T11:12:33;14.40;99.90
22224;DHT22;11281;52.194;21.006;2023-03-31T11:21:50;14.50;99.90
22224;DHT22;11281;52.194;21.006;2023-03-31T11:26:17;14.90;99.90
22224;DHT22;11281;52.194;21.006;2023-03-31T11:44:40;15.10;99.90
22224;DHT22;11281;52.194;21.006;2023-03-31T11:48:59;15.00;99.90
22224;DHT22;11281;52.194;21.006;2023-03-31T11:53:16;15.00;99.90
22224;DHT22;11281;52.194;21.006;2023-03-31T12:01:44;14.40;99.90
22224;DHT22;11281;52.194;21.006;2023-03-31T12:05:55;14.60;99.90
22224;DHT22;11281;52.194;21.006;2023-03-31T12:19:09;15.40;99.90
22224;DHT22;11281;52.194;21.006;2023-03-31T12:23:18;15.40;99.90
22224;DHT22;11281;52.194;21.006;2023-03-31T12:27:43;15.50;99.90
22224;DHT22;11281;52.194;21.006;2023-03-31T12:31:53;15.50;99.90
22224;DHT22;11281;52.194;21.006;2023-03-31T12:44:32;15.80;99.90
22224;DHT22;11281;52.194;21.006;2023-03-31T12:49:08;15.90;99.90
22224;DHT22;11281;52.194;21.006;2023-03-31T12:53:31;15.80;99.90
22224;DHT22;11281;52.194;21.006;2023-03-31T12:57:34;15.80;99.90
22224;DHT22;11281;52.194;21.006;2023-03-31T13:10:33;15.50;99.90
22224;DHT22;11281;52.194;21.006;2023-03-31T13:14:55;15.20;99.90
22224;DHT22;11281;52.194;21.006;2023-03-31T13:19:00;15.40;99.90
22224;DHT22;11281;52.194;21.006;2023-03-31T13:27:49;16.50;99.90
22224;DHT22;11281;52.194;21.006;2023-03-31T13:36:11;16.10;99.90
22224;DHT22;11281;52.194;21.006;2023-03-31T13:40:48;15.80;99.90
22224;DHT22;11281;52.194;21.006;2023-03-31T13:53:50;15.60;99.90
22224;DHT22;11281;52.194;21.006;2023-03-31T13:58:20;15.50;99.90
22224;DHT22;11281;52.194;21.006;2023-03-31T14:07:32;15.40;99.90
22224;DHT22;11281;52.194;21.006;2023-03-31T14:11:37;15.50;99.90
22224;DHT22;11281;52.194;21.006;2023-03-31T14:15:50;15.20;99.90
22224;DHT22;11281;52.194;21.006;2023-03-31T14:20:34;15.10;99.90
22224;DHT22;11281;52.194;21.006;2023-03-31T14:37:44;14.50;99.90
22224;DHT22;11281;52.194;21.006;2023-03-31T14:41:52;14.60;99.90
22224;DHT22;11281;52.194;21.006;2023-03-31T14:46:07;15.10;99.90
22224;DHT22;11281;52.194;21.006;2023-03-31T14:50:17;15.00;99.90
22224;DHT22;11281;52.194;21.006;2023-03-31T14:54:20;14.80;99.90
22224;DHT22;11281;52.194;21.006;2023-03-31T14:58:28;14.60;99.90
22224;DHT22;11281;52.194;21.006;2023-03-31T15:02:34;14.70;99.90
22224;DHT22;11281;52.194;21.006;2023-03-31T15:06:38;14.80;99.90
22224;DHT22;11281;52.194;21.006;2023-03-31T15:10:44;14.90;99.90
22224;DHT22;11281;52.194;21.006;2023-03-31T15:14:55;14.70;99.90
22224;DHT22;11281;52.194;21.006;2023-03-31T15:19:00;14.70;99.90
22224;DHT22;11281;52.194;21.006;2023-03-31T15:23:22;14.50;99.90
22224;DHT22;11281;52.194;21.006;2023-03-31T15:27:38;14.40;99.90
22224;DHT22;11281;52.194;21.006;2023-03-31T15:31:46;14.10;99.90
22224;DHT22;11281;52.194;21.006;2023-03-31T15:35:48;14.20;99.90
22224;DHT22;11281;52.194;21.006;2023-03-31T15:39:50;14.40;99.90
22224;DHT22;11281;52.194;21.006;2023-03-31T15:44:06;14.30;99.90
22224;DHT22;11281;52.194;21.006;2023-03-31T15:48:34;14.20;99.90
22224;DHT22;11281;52.194;21.006;2023-03-31T15:52:44;14.10;99.90
22224;DHT22;11281;52.194;21.006;2023-03-31T15:56:47;14.00;99.90
22224;DHT22;11281;52.194;21.006;2023-03-31T16:00:53;14.00;99.90
22224;DHT22;11281;52.194;21.006;2023-03-31T16:05:05;14.00;99.90
22224;DHT22;11281;52.194;21.006;2023-03-31T16:09:27;14.00;99.90
22224;DHT22;11281;52.194;21.006;2023-03-31T16:13:33;13.90;99.90
22224;DHT22;11281;52.194;21.006;2023-03-31T16:21:57;13.50;99.90
22224;DHT22;11281;52.194;21.006;2023-03-31T16:26:02;13.30;99.90
22224;DHT22;11281;52.194;21.006;2023-03-31T16:30:14;13.10;99.90
22224;DHT22;11281;52.194;21.006;2023-03-31T16:34:22;12.90;99.90
22224;DHT22;11281;52.194;21.006;2023-03-31T16:38:26;12.70;99.90
22224;DHT22;11281;52.194;21.006;2023-03-31T16:42:28;12.60;99.90
22224;DHT22;11281;52.194;21.006;2023-03-31T16:46:30;12.30;99.90
22224;DHT22;11281;52.194;21.006;2023-03-31T16:50:31;12.00;99.90
22224;DHT22;11281;52.194;21.006;2023-03-31T16:54:33;11.80;99.90
22224;DHT22;11281;52.194;21.006;2023-03-31T16:58:35;11.70;99.90
22224;DHT22;11281;52.194;21.006;2023-03-31T17:02:38;11.60;99.90
22224;DHT22;11281;52.194;21.006;2023-03-31T17:06:39;11.40;99.90
22224;DHT22;11281;52.194;21.006;2023-03-31T17:10:41;11.30;99.90
22224;DHT22;11281;52.194;21.006;2023-03-31T17:14:50;11.20;99.90
22224;DHT22;11281;52.194;21.006;2023-03-31T17:18:52;11.10;99.90
22224;DHT22;11281;52.194;21.006;2023-03-31T17:22:54;11.10;99.90
22224;DHT22;11281;52.194;21.006;2023-03-31T17:26:56;10.90;99.90
22224;DHT22;11281;52.194;21.006;2023-03-31T17:30:58;11.00;99.90
22224;DHT22;11281;52.194;21.006;2023-03-31T17:35:00;10.90;99.90
22224;DHT22;11281;52.194;21.006;2023-03-31T17:39:03;10.80;99.90
22224;DHT22;11281;52.194;21.006;2023-03-31T17:43:06;10.80;99.90
22224;DHT22;11281;52.194;21.006;2023-03-31T17:47:07;10.70;99.90
22224;DHT22;11281;52.194;21.006;2023-03-31T17:51:12;10.70;99.90
22224;DHT22;11281;52.194;21.006;2023-03-31T17:55:16;10.60;99.90
22224;DHT22;11281;52.194;21.006;2023-03-31T17:59:18;10.70;99.90
22224;DHT22;11281;52.194;21.006;2023-03-31T18:03:20;10.70;99.90
22224;DHT22;11281;52.194;21.006;2023-03-31T18:07:22;10.70;99.90
22224;DHT22;11281;52.194;21.006;2023-03-31T18:11:24;10.30;99.90
22224;DHT22;11281;52.194;21.006;2023-03-31T18:15:27;10.10;99.90
22224;DHT22;11281;52.194;21.006;2023-03-31T18:19:29;10.10;99.90
22224;DHT22;11281;52.194;21.006;2023-03-31T18:23:32;9.90;99.90
22224;DHT22;11281;52.194;21.006;2023-03-31T18:27:34;9.80;99.90
22224;DHT22;11281;52.194;21.006;2023-03-31T18:31:36;9.80;99.90
22224;DHT22;11281;52.194;21.006;2023-03-31T18:35:38;9.70;99.90
22224;DHT22;11281;52.194;21.006;2023-03-31T18:39:40;9.70;99.90
22224;DHT22;11281;52.194;21.006;2023-03-31T18:43:43;9.70;99.90
22224;DHT22;11281;52.194;21.006;2023-03-31T18:47:44;9.70;99.90
22224;DHT22;11281;52.194;21.006;2023-03-31T18:51:46;9.60;99.90
22224;DHT22;11281;52.194;21.006;2023-03-31T18:55:50;9.60;99.90
22224;DHT22;11281;52.194;21.006;2023-03-31T18:59:52;9.60;99.90
22224;DHT22;11281;52.194;21.006;2023-03-31T19:03:54;9.60;99.90
22224;DHT22;11281;52.194;21.006;2023-03-31T19:07:56;9.60;99.90
22224;DHT22;11281;52.194;21.006;2023-03-31T19:11:58;9.50;99.90
22224;DHT22;11281;52.194;21.006;2023-03-31T19:16:00;9.60;99.90
22224;DHT22;11281;52.194;21.006;2023-03-31T19:20:02;9.50;99.90
22224;DHT22;11281;52.194;21.006;2023-03-31T19:24:06;9.30;99.90
22224;DHT22;11281;52.194;21.006;2023-03-31T19:28:13;9.20;99.90
22224;DHT22;11281;52.194;21.006;2023-03-31T19:32:16;9.10;99.90
22224;DHT22;11281;52.194;21.006;2023-03-31T19:36:18;9.20;99.90
22224;DHT22;11281;52.194;21.006;2023-03-31T19:40:20;9.30;99.90
22224;DHT22;11281;52.194;21.006;2023-03-31T19:44:21;9.20;99.90
22224;DHT22;11281;52.194;21.006;2023-03-31T19:48:24;9.10;99.90
22224;DHT22;11281;52.194;21.006;2023-03-31T19:52:27;9.10;99.90
22224;DHT22;11281;52.194;21.006;2023-03-31T19:56:29;9.20;99.90
22224;DHT22;11281;52.194;21.006;2023-03-31T20:00:32;9.20;99.90
22224;DHT22;11281;52.194;21.006;2023-03-31T20:04:34;9.30;99.90
22224;DHT22;11281;52.194;21.006;2023-03-31T20:08:38;9.30;99.90
22224;DHT22;11281;52.194;21.006;2023-03-31T20:12:42;9.30;99.90
22224;DHT22;11281;52.194;21.006;2023-03-31T20:16:43;9.30;99.90
22224;DHT22;11281;52.194;21.006;2023-03-31T20:20:45;9.20;99.90
22224;DHT22;11281;52.194;21.006;2023-03-31T20:24:47;9.20;99.90
22224;DHT22;11281;52.194;21.006;2023-03-31T20:28:49;9.20;99.90
22224;DHT22;11281;52.194;21.006;2023-03-31T20:32:52;9.20;99.90
22224;DHT22;11281;52.194;21.006;2023-03-31T20:36:53;9.10;99.90
22224;DHT22;11281;52.194;21.006;2023-03-31T20:40:55;9.10;99.90
22224;DHT22;11281;52.194;21.006;2023-03-31T20:44:57;9.10;99.90
22224;DHT22;11281;52.194;21.006;2023-03-31T20:48:59;9.10;99.90
22224;DHT22;11281;52.194;21.006;2023-03-31T20:53:01;9.10;99.90
22224;DHT22;11281;52.194;21.006;2023-03-31T20:57:03;9.10;99.90
22224;DHT22;11281;52.194;21.006;2023-03-31T21:01:06;9.00;99.90
22224;DHT22;11281;52.194;21.006;2023-03-31T21:05:08;9.10;99.90
22224;DHT22;11281;52.194;21.006;2023-03-31T21:09:11;9.10;99.90
22224;DHT22;11281;52.194;21.006;2023-03-31T21:13:32;9.10;99.90
22224;DHT22;11281;52.194;21.006;2023-03-31T21:17:37;9.10;99.90
22224;DHT22;11281;52.194;21.006;2023-03-31T21:21:38;9.20;99.90
22224;DHT22;11281;52.194;21.006;2023-03-31T21:25:41;9.20;99.90
22224;DHT22;11281;52.194;21.006;2023-03-31T21:29:42;9.20;99.90
22224;DHT22;11281;52.194;21.006;2023-03-31T21:33:45;9.20;99.90
22224;DHT22;11281;52.194;21.006;2023-03-31T21:37:47;9.20;99.90
22224;DHT22;11281;52.194;21.006;2023-03-31T21:41:52;9.20;99.90
22224;DHT22;11281;52.194;21.006;2023-03-31T21:45:57;9.20;99.90
22224;DHT22;11281;52.194;21.006;2023-03-31T21:49:59;9.20;99.90
22224;DHT22;11281;52.194;21.006;2023-03-31T21:54:01;9.20;99.90
22224;DHT22;11281;52.194;21.006;2023-03-31T21:58:04;9.30;99.90
22224;DHT22;11281;52.194;21.006;2023-03-31T22:02:05;9.30;99.90
22224;DHT22;11281;52.194;21.006;2023-03-31T22:06:07;9.30;99.90
22224;DHT22;11281;52.194;21.006;2023-03-31T22:10:09;9.40;99.90
22224;DHT22;11281;52.194;21.006;2023-03-31T22:14:11;9.40;99.90
22224;DHT22;11281;52.194;21.006;2023-03-31T22:18:13;9.40;99.90
22224;DHT22;11281;52.194;21.006;2023-03-31T22:22:15;9.30;99.90
22224;DHT22;11281;52.194;21.006;2023-03-31T22:26:17;9.30;99.90
22224;DHT22;11281;52.194;21.006;2023-03-31T22:30:19;9.30;99.90
22224;DHT22;11281;52.194;21.006;2023-03-31T22:34:21;9.30;99.90
22224;DHT22;11281;52.194;21.006;2023-03-31T22:38:23;9.30;99.90
22224;DHT22;11281;52.194;21.006;2023-03-31T22:42:25;9.30;99.90
22224;DHT22;11281;52.194;21.006;2023-03-31T22:46:26;9.30;99.90
22224;DHT22;11281;52.194;21.006;2023-03-31T22:50:30;9.30;99.90
22224;DHT22;11281;52.194;21.006;2023-03-31T22:54:33;9.30;99.90
22224;DHT22;11281;52.194;21.006;2023-03-31T22:58:34;9.40;99.90
22224;DHT22;11281;52.194;21.006;2023-03-31T23:02:36;9.30;99.90
22224;DHT22;11281;52.194;21.006;2023-03-31T23:06:37;9.30;99.90
22224;DHT22;11281;52.194;21.006;2023-03-31T23:10:39;9.30;99.90
22224;DHT22;11281;52.194;21.006;2023-03-31T23:14:41;9.30;99.90
22224;DHT22;11281;52.194;21.006;2023-03-31T23:18:43;9.30;99.90
22224;DHT22;11281;52.194;21.006;2023-03-31T23:22:47;9.30;99.90
22224;DHT22;11281;52.194;21.006;2023-03-31T23:26:51;9.30;99.90
22224;DHT22;11281;52.194;21.006;2023-03-31T23:30:53;9.30;99.90
22224;DHT22;11281;52.194;21.006;2023-03-31T23:34:57;9.30;99.90
22224;DHT22;11281;52.194;21.006;2023-03-31T23:38:58;9.30;99.90
22224;DHT22;11281;52.194;21.006;2023-03-31T23:43:00;9.20;99.90
22224;DHT22;11281;52.194;21.006;2023-03-31T23:47:03;9.20;99.90
22224;DHT22;11281;52.194;21.006;2023-03-31T23:51:07;9.30;99.90
22224;DHT22;11281;52.194;21.006;2023-03-31T23:55:09;9.30;99.90
22224;DHT22;11281;52.194;21.006;2023-03-31T23:59:13;9.20;99.90
